Golden Iris — 3FZK4 — position and weather

sailwx.info

Track history (hours):
 
Tides and Currents Weather Stations Pressure Air Temp Water Temp Dewpoint Dewpoint Depression Visibility Wind Speed Wind Dir Waves Ship Positions

Golden Iris

Last reported at 2015-May-07 08:33 UTC. Time now 2015-May-07 08:39 UTC.
Position N 34°19' E 031°44'.

Length 180 m; draft 6 m.

Type: Passenger vessel. MMSI: 371771000.

Date/timePositionNaut miles runAvg speedWind from/ knotsBaromVisibWave heightAir tempDewpointWater temp
2015-May-07 08:33N 34°19' E 031°44'1211.5
2015-May-07 07:33N 34°27' E 031°35'  
2015-May-04 15:33N 34°36' E 032°39'1312.8
2015-May-04 14:33N 34°32' E 032°54'10 9.7
2015-May-04 13:33N 34°37' E 033°04'3 3.2
2015-May-04 12:33N 34°39' E 033°01'0 0.0
2015-May-04 11:30N 34°39' E 033°01'0 0.0
2015-May-04 10:33N 34°39' E 033°01'0 0.0
2015-May-04 09:33N 34°39' E 033°01'0 0.0
2015-May-04 08:33N 34°39' E 033°01'0 0.0
2015-May-04 07:33N 34°39' E 033°01'0 0.0
2015-May-04 06:33N 34°39' E 033°01'0 0.0
2015-May-04 05:33N 34°39' E 033°01'0 0.0
2015-May-04 04:33N 34°39' E 033°01'5 5.2
2015-May-04 03:33N 34°36' E 033°06'8 7.9
2015-May-04 02:33N 34°30' E 033°12'9 9.2
2015-May-04 01:33N 34°22' E 033°18'59 9.7
2015-May-03 19:26N 33°37' E 034°04'6010.1
2015-May-03 13:32N 32°54' E 034°53'1 0.1
2015-May-03 02:27N 32°53' E 034°53'9 9.7
2015-May-03 01:31N 32°55' E 034°43'3110.1
2015-May-02 22:25N 33°20' E 034°21'4811.1
2015-May-02 18:03N 34°04' E 033°57'510.7
2015-May-02 17:33N 34°09' E 033°55'7 7.1
2015-May-02 16:33N 34°16' E 033°53'1510.2
2015-May-02 15:07N 34°30' E 033°48'27 1.4
2015-May-01 19:31N 34°56' E 033°39'0 0.0
2015-May-01 18:31N 34°56' E 033°39'132 5.4
2015-Apr-30 18:05N 32°57' E 034°48'13 0.8
2015-Apr-30 02:18N 32°49' E 035°00'  
Track history (hours):
 
Tides and Currents Weather Stations Pressure Air Temp Water Temp Dewpoint Dewpoint Depression Visibility Wind Speed Wind Dir Waves Ship Positions

Golden Iris

Last reported at 2015-May-07 08:33 UTC. Time now 2015-May-07 08:39 UTC.
Position N 34°19' E 031°44'.

Length 180 m; draft 6 m.

Type: Passenger vessel. MMSI: 371771000.

Date/timePositionNaut miles runAvg speedWind from/ knotsBaromVisibWave heightAir tempDewpointWater temp
2015-May-07 08:33N 34°19' E 031°44'1211.5
2015-May-07 07:33N 34°27' E 031°35'  
2015-May-04 15:33N 34°36' E 032°39'1312.8
2015-May-04 14:33N 34°32' E 032°54'10 9.7
2015-May-04 13:33N 34°37' E 033°04'3 3.2
2015-May-04 12:33N 34°39' E 033°01'0 0.0
2015-May-04 11:30N 34°39' E 033°01'0 0.0
2015-May-04 10:33N 34°39' E 033°01'0 0.0
2015-May-04 09:33N 34°39' E 033°01'0 0.0
2015-May-04 08:33N 34°39' E 033°01'0 0.0
2015-May-04 07:33N 34°39' E 033°01'0 0.0
2015-May-04 06:33N 34°39' E 033°01'0 0.0
2015-May-04 05:33N 34°39' E 033°01'0 0.0
2015-May-04 04:33N 34°39' E 033°01'5 5.2
2015-May-04 03:33N 34°36' E 033°06'8 7.9
2015-May-04 02:33N 34°30' E 033°12'9 9.2
2015-May-04 01:33N 34°22' E 033°18'59 9.7
2015-May-03 19:26N 33°37' E 034°04'6010.1
2015-May-03 13:32N 32°54' E 034°53'1 0.1
2015-May-03 02:27N 32°53' E 034°53'9 9.7
2015-May-03 01:31N 32°55' E 034°43'3110.1
2015-May-02 22:25N 33°20' E 034°21'4811.1
2015-May-02 18:03N 34°04' E 033°57'510.7
2015-May-02 17:33N 34°09' E 033°55'7 7.1
2015-May-02 16:33N 34°16' E 033°53'1510.2
2015-May-02 15:07N 34°30' E 033°48'27 1.4
2015-May-01 19:31N 34°56' E 033°39'0 0.0
2015-May-01 18:31N 34°56' E 033°39'132 5.4
2015-Apr-30 18:05N 32°57' E 034°48'13 0.8
2015-Apr-30 02:18N 32°49' E 035°00'  

Dump ship's entire track history